sensor_id;sensor_type;location;lat;lon;timestamp;pressure;altitude;pressure_sealevel;temperature;humidity
40075;BME280;26529;51.530;11.754;2023-01-30T00:01:02;100166.56;;;17.68;43.42
40075;BME280;26529;51.530;11.754;2023-01-30T00:03:28;100166.56;;;17.68;43.37
40075;BME280;26529;51.530;11.754;2023-01-30T00:05:53;100162.19;;;17.67;43.58
40075;BME280;26529;51.530;11.754;2023-01-30T00:08:19;100161.25;;;17.68;43.58
40075;BME280;26529;51.530;11.754;2023-01-30T00:10:45;100157.81;;;17.66;43.41
40075;BME280;26529;51.530;11.754;2023-01-30T00:13:11;100157.81;;;17.66;43.59
40075;BME280;26529;51.530;11.754;2023-01-30T00:15:37;100144.56;;;17.66;43.55
40075;BME280;26529;51.530;11.754;2023-01-30T00:18:02;100159.53;;;17.67;43.54
40075;BME280;26529;51.530;11.754;2023-01-30T00:20:28;100143.72;;;17.65;43.50
40075;BME280;26529;51.530;11.754;2023-01-30T00:22:54;100140.19;;;17.65;43.40
40075;BME280;26529;51.530;11.754;2023-01-30T00:25:19;100142.84;;;17.65;43.42
40075;BME280;26529;51.530;11.754;2023-01-30T00:27:45;100127.88;;;17.63;43.37
40075;BME280;26529;51.530;11.754;2023-01-30T00:30:10;100120.88;;;17.62;43.43
40075;BME280;26529;51.530;11.754;2023-01-30T00:32:36;100102.31;;;17.62;43.43
40075;BME280;26529;51.530;11.754;2023-01-30T00:35:02;100080.25;;;17.62;43.48
40075;BME280;26529;51.530;11.754;2023-01-30T00:37:27;100090.03;;;17.61;43.62
40075;BME280;26529;51.530;11.754;2023-01-30T00:39:52;100093.63;;;17.60;43.49
40075;BME280;26529;51.530;11.754;2023-01-30T00:42:18;100082.06;;;17.61;43.24
40075;BME280;26529;51.530;11.754;2023-01-30T00:45:02;100071.47;;;17.61;43.30
40075;BME280;26529;51.530;11.754;2023-01-30T00:47:49;100081.13;;;17.62;43.30
40075;BME280;26529;51.530;11.754;2023-01-30T00:50:15;100082.06;;;17.61;43.42
40075;BME280;26529;51.530;11.754;2023-01-30T00:52:42;100066.16;;;17.61;43.51
40075;BME280;26529;51.530;11.754;2023-01-30T00:55:07;100057.44;;;17.59;43.52
40075;BME280;26529;51.530;11.754;2023-01-30T00:57:33;100047.69;;;17.60;43.41
40075;BME280;26529;51.530;11.754;2023-01-30T00:59:58;100031.88;;;17.58;43.53
40075;BME280;26529;51.530;11.754;2023-01-30T01:02:24;100015.22;;;17.56;43.61
40075;BME280;26529;51.530;11.754;2023-01-30T01:04:51;100009.91;;;17.56;43.38
40075;BME280;26529;51.530;11.754;2023-01-30T01:07:17;99995.69;;;17.57;43.54
40075;BME280;26529;51.530;11.754;2023-01-30T01:09:42;99982.44;;;17.57;43.36
40075;BME280;26529;51.530;11.754;2023-01-30T01:12:08;99972.72;;;17.58;43.63
40075;BME280;26529;51.530;11.754;2023-01-30T01:14:34;99949.88;;;17.55;43.53
40075;BME280;26529;51.530;11.754;2023-01-30T01:16:59;99948.06;;;17.56;43.45
40075;BME280;26529;51.530;11.754;2023-01-30T01:19:25;99953.50;;;17.54;43.56
40075;BME280;26529;51.530;11.754;2023-01-30T01:21:50;99950.72;;;17.56;43.53
40075;BME280;26529;51.530;11.754;2023-01-30T01:24:16;99936.72;;;17.54;43.55
40075;BME280;26529;51.530;11.754;2023-01-30T01:26:42;99938.41;;;17.55;43.52
40075;BME280;26529;51.530;11.754;2023-01-30T01:29:14;99941.94;;;17.55;43.39
40075;BME280;26529;51.530;11.754;2023-01-30T01:31:41;99957.84;;;17.55;43.38
40075;BME280;26529;51.530;11.754;2023-01-30T01:34:06;99955.28;;;17.54;43.38
40075;BME280;26529;51.530;11.754;2023-01-30T01:36:32;99912.78;;;17.55;43.43
40075;BME280;26529;51.530;11.754;2023-01-30T01:38:57;99917.41;;;17.52;43.58
40075;BME280;26529;51.530;11.754;2023-01-30T01:41:23;99890.03;;;17.51;43.42
40075;BME280;26529;51.530;11.754;2023-01-30T01:44:04;99917.31;;;17.53;43.46
40075;BME280;26529;51.530;11.754;2023-01-30T01:46:49;99889.09;;;17.52;43.57
40075;BME280;26529;51.530;11.754;2023-01-30T01:49:35;99905.94;;;17.51;43.35
40075;BME280;26529;51.530;11.754;2023-01-30T01:52:10;99924.41;;;17.53;43.48
40075;BME280;26529;51.530;11.754;2023-01-30T01:54:45;99928.84;;;17.52;43.58
40075;BME280;26529;51.530;11.754;2023-01-30T01:57:17;99944.66;;;17.54;43.56
40075;BME280;26529;51.530;11.754;2023-01-30T01:59:49;99922.63;;;17.53;43.45
40075;BME280;26529;51.530;11.754;2023-01-30T02:02:16;99928.84;;;17.52;43.43
40075;BME280;26529;51.530;11.754;2023-01-30T02:04:45;99934.34;;;17.49;43.57
40075;BME280;26529;51.530;11.754;2023-01-30T02:10:44;99909.56;;;17.50;43.39
40075;BME280;26529;51.530;11.754;2023-01-30T02:13:14;99904.34;;;17.48;43.43
40075;BME280;26529;51.530;11.754;2023-01-30T02:15:39;99898.09;;;17.49;43.48
40075;BME280;26529;51.530;11.754;2023-01-30T02:18:06;99896.28;;;17.50;43.30
40075;BME280;26529;51.530;11.754;2023-01-30T02:23:48;99891.09;;;17.48;43.44
40075;BME280;26529;51.530;11.754;2023-01-30T02:26:54;99883.25;;;17.47;43.58
40075;BME280;26529;51.530;11.754;2023-01-30T02:32:28;99857.66;;;17.46;43.63
40075;BME280;26529;51.530;11.754;2023-01-30T02:35:03;99858.63;;;17.45;43.43
40075;BME280;26529;51.530;11.754;2023-01-30T02:40:37;99828.50;;;17.46;43.34
40075;BME280;26529;51.530;11.754;2023-01-30T02:48:22;99807.31;;;17.46;43.57
40075;BME280;26529;51.530;11.754;2023-01-30T02:51:04;99803.91;;;17.44;43.53
40075;BME280;26529;51.530;11.754;2023-01-30T02:53:32;99799.34;;;17.46;43.56
40075;BME280;26529;51.530;11.754;2023-01-30T02:55:59;99807.31;;;17.46;43.44
40075;BME280;26529;51.530;11.754;2023-01-30T02:58:28;99807.31;;;17.46;43.46
40075;BME280;26529;51.530;11.754;2023-01-30T03:01:30;99814.50;;;17.44;43.50
40075;BME280;26529;51.530;11.754;2023-01-30T03:06:41;99825.13;;;17.44;43.55
40075;BME280;26529;51.530;11.754;2023-01-30T03:12:00;99797.13;;;17.40;43.61
40075;BME280;26529;51.530;11.754;2023-01-30T03:14:40;99804.13;;;17.41;43.43
40075;BME280;26529;51.530;11.754;2023-01-30T03:17:09;99796.06;;;17.42;43.65
40075;BME280;26529;51.530;11.754;2023-01-30T03:19:35;99797.13;;;17.40;43.62
40075;BME280;26529;51.530;11.754;2023-01-30T03:22:01;99790.97;;;17.39;43.57
40075;BME280;26529;51.530;11.754;2023-01-30T03:24:27;99790.88;;;17.41;43.50
40075;BME280;26529;51.530;11.754;2023-01-30T03:27:05;99778.66;;;17.38;43.44
40075;BME280;26529;51.530;11.754;2023-01-30T03:29:32;99765.31;;;17.40;43.47
40075;BME280;26529;51.530;11.754;2023-01-30T03:31:58;99758.28;;;17.39;43.58
40075;BME280;26529;51.530;11.754;2023-01-30T03:34:23;99755.66;;;17.39;43.54
40075;BME280;26529;51.530;11.754;2023-01-30T03:36:49;99750.47;;;17.37;43.48
40075;BME280;26529;51.530;11.754;2023-01-30T03:39:15;99751.31;;;17.38;43.51
40075;BME280;26529;51.530;11.754;2023-01-30T03:41:40;99753.00;;;17.39;43.72
40075;BME280;26529;51.530;11.754;2023-01-30T03:44:06;99739.75;;;17.39;43.43
40075;BME280;26529;51.530;11.754;2023-01-30T03:46:32;99738.25;;;17.34;43.70
40075;BME280;26529;51.530;11.754;2023-01-30T03:48:57;99740.91;;;17.34;43.62
40075;BME280;26529;51.530;11.754;2023-01-30T03:51:23;99723.19;;;17.35;43.66
40075;BME280;26529;51.530;11.754;2023-01-30T03:53:48;99695.75;;;17.36;43.58
40075;BME280;26529;51.530;11.754;2023-01-30T03:56:14;99696.69;;;17.35;43.60
40075;BME280;26529;51.530;11.754;2023-01-30T03:58:39;99691.53;;;17.33;43.58
40075;BME280;26529;51.530;11.754;2023-01-30T04:01:15;99669.16;;;17.38;43.69
40075;BME280;26529;51.530;11.754;2023-01-30T04:03:41;99677.09;;;17.38;43.40
40075;BME280;26529;51.530;11.754;2023-01-30T04:06:06;99679.00;;;17.35;43.68
40075;BME280;26529;51.530;11.754;2023-01-30T04:08:32;99678.16;;;17.35;43.65
40075;BME280;26529;51.530;11.754;2023-01-30T04:10:58;99682.72;;;17.33;43.54
40075;BME280;26529;51.530;11.754;2023-01-30T04:13:24;99685.25;;;17.34;43.53
40075;BME280;26529;51.530;11.754;2023-01-30T04:15:50;99705.50;;;17.35;43.51
40075;BME280;26529;51.530;11.754;2023-01-30T04:18:21;99712.50;;;17.36;43.58
40075;BME280;26529;51.530;11.754;2023-01-30T04:20:49;99706.34;;;17.36;43.68
40075;BME280;26529;51.530;11.754;2023-01-30T04:23:20;99702.94;;;17.34;43.52
40075;BME280;26529;51.530;11.754;2023-01-30T04:25:46;99703.03;;;17.32;43.68
40075;BME280;26529;51.530;11.754;2023-01-30T04:28:15;99695.09;;;17.32;43.61
40075;BME280;26529;51.530;11.754;2023-01-30T04:30:42;99703.03;;;17.32;43.54
40075;BME280;26529;51.530;11.754;2023-01-30T04:33:33;99700.38;;;17.32;43.60
40075;BME280;26529;51.530;11.754;2023-01-30T04:36:03;99697.97;;;17.29;43.80
40075;BME280;26529;51.530;11.754;2023-01-30T04:38:30;99692.56;;;17.31;43.82
40075;BME280;26529;51.530;11.754;2023-01-30T04:40:56;99681.97;;;17.31;43.63
40075;BME280;26529;51.530;11.754;2023-01-30T04:43:25;99674.00;;;17.31;43.61
40075;BME280;26529;51.530;11.754;2023-01-30T04:45:54;99665.19;;;17.30;43.96
40075;BME280;26529;51.530;11.754;2023-01-30T04:48:21;99634.38;;;17.29;43.57
40075;BME280;26529;51.530;11.754;2023-01-30T04:50:49;99621.13;;;17.29;43.66
40075;BME280;26529;51.530;11.754;2023-01-30T04:53:17;99621.22;;;17.28;43.60
40075;BME280;26529;51.530;11.754;2023-01-30T04:55:43;99623.66;;;17.31;43.81
40075;BME280;26529;51.530;11.754;2023-01-30T04:58:08;99625.47;;;17.30;43.71
40075;BME280;26529;51.530;11.754;2023-01-30T05:00:34;99614.94;;;17.29;43.83
40075;BME280;26529;51.530;11.754;2023-01-30T05:02:59;99620.25;;;17.29;43.69
40075;BME280;26529;51.530;11.754;2023-01-30T05:05:26;99607.13;;;17.27;43.84
40075;BME280;26529;51.530;11.754;2023-01-30T05:07:53;99601.84;;;17.27;43.80
40075;BME280;26529;51.530;11.754;2023-01-30T05:10:19;99599.06;;;17.29;43.69
40075;BME280;26529;51.530;11.754;2023-01-30T05:12:45;99581.38;;;17.29;43.67
40075;BME280;26529;51.530;11.754;2023-01-30T05:15:12;99597.19;;;17.31;43.56
40075;BME280;26529;51.530;11.754;2023-01-30T05:17:38;99599.06;;;17.29;43.54
40075;BME280;26529;51.530;11.754;2023-01-30T05:20:05;99602.66;;;17.28;43.64
40075;BME280;26529;51.530;11.754;2023-01-30T05:22:32;99609.66;;;17.29;43.70
40075;BME280;26529;51.530;11.754;2023-01-30T05:24:57;99621.97;;;17.30;43.89
40075;BME280;26529;51.530;11.754;2023-01-30T05:27:23;99622.16;;;17.27;43.76
40075;BME280;26529;51.530;11.754;2023-01-30T05:29:48;99619.41;;;17.28;43.77
40075;BME280;26529;51.530;11.754;2023-01-30T05:32:15;99617.72;;;17.27;43.64
40075;BME280;26529;51.530;11.754;2023-01-30T05:34:41;99611.56;;;17.27;43.88
40075;BME280;26529;51.530;11.754;2023-01-30T05:37:06;99594.06;;;17.24;43.68
40075;BME280;26529;51.530;11.754;2023-01-30T05:39:32;99599.28;;;17.26;43.87
40075;BME280;26529;51.530;11.754;2023-01-30T05:41:57;99586.97;;;17.25;43.92
40075;BME280;26529;51.530;11.754;2023-01-30T05:44:23;99585.16;;;17.25;43.88
40075;BME280;26529;51.530;11.754;2023-01-30T05:46:49;99582.50;;;17.25;43.69
40075;BME280;26529;51.530;11.754;2023-01-30T05:49:14;99573.72;;;17.25;43.85
40075;BME280;26529;51.530;11.754;2023-01-30T05:51:40;99570.22;;;17.24;43.79
40075;BME280;26529;51.530;11.754;2023-01-30T05:54:06;99578.06;;;17.26;43.96
40075;BME280;26529;51.530;11.754;2023-01-30T05:56:31;99561.44;;;17.24;43.99
40075;BME280;26529;51.530;11.754;2023-01-30T05:58:58;99559.63;;;17.24;43.92
40075;BME280;26529;51.530;11.754;2023-01-30T06:01:25;99552.63;;;17.23;43.86
40075;BME280;26529;51.530;11.754;2023-01-30T06:03:51;99538.44;;;17.24;43.76
40075;BME280;26529;51.530;11.754;2023-01-30T06:06:17;99538.66;;;17.21;43.84
40075;BME280;26529;51.530;11.754;2023-01-30T06:08:43;99542.03;;;17.23;43.91
40075;BME280;26529;51.530;11.754;2023-01-30T06:11:11;99536.75;;;17.23;43.99
40075;BME280;26529;51.530;11.754;2023-01-30T06:13:37;99538.44;;;17.24;43.82
40075;BME280;26529;51.530;11.754;2023-01-30T06:16:06;99543.72;;;17.24;43.84
40075;BME280;26529;51.530;11.754;2023-01-30T06:18:32;99550.94;;;17.22;43.68
40075;BME280;26529;51.530;11.754;2023-01-30T06:20:58;99552.63;;;17.23;43.86
40075;BME280;26529;51.530;11.754;2023-01-30T06:23:24;99551.78;;;17.22;43.77
40075;BME280;26529;51.530;11.754;2023-01-30T06:25:50;99549.97;;;17.23;43.71
40075;BME280;26529;51.530;11.754;2023-01-30T06:28:16;99559.84;;;17.21;43.91
40075;BME280;26529;51.530;11.754;2023-01-30T06:30:42;99557.94;;;17.23;43.94
40075;BME280;26529;51.530;11.754;2023-01-30T06:33:09;99561.53;;;17.22;43.76
40075;BME280;26529;51.530;11.754;2023-01-30T06:35:38;99581.03;;;17.21;43.90
40075;BME280;26529;51.530;11.754;2023-01-30T06:38:04;99575.75;;;17.21;43.79
40075;BME280;26529;51.530;11.754;2023-01-30T06:40:30;99581.03;;;17.21;43.84
40075;BME280;26529;51.530;11.754;2023-01-30T06:42:55;99575.75;;;17.21;43.81
40075;BME280;26529;51.530;11.754;2023-01-30T06:45:21;99586.34;;;17.21;43.75
40075;BME280;26529;51.530;11.754;2023-01-30T06:47:49;99575.94;;;17.18;43.83
40075;BME280;26529;51.530;11.754;2023-01-30T06:50:16;99568.75;;;17.20;43.75
40075;BME280;26529;51.530;11.754;2023-01-30T06:52:46;99572.22;;;17.20;43.95
40075;BME280;26529;51.530;11.754;2023-01-30T06:55:14;99567.03;;;17.19;43.76
40075;BME280;26529;51.530;11.754;2023-01-30T06:57:41;99567.03;;;17.19;43.95
40075;BME280;26529;51.530;11.754;2023-01-30T07:00:12;99559.84;;;17.21;43.75
40075;BME280;26529;51.530;11.754;2023-01-30T07:02:38;99564.28;;;17.20;43.92
40075;BME280;26529;51.530;11.754;2023-01-30T07:05:06;99558.16;;;17.20;43.94
40075;BME280;26529;51.530;11.754;2023-01-30T07:07:32;99558.16;;;17.20;43.96
40075;BME280;26529;51.530;11.754;2023-01-30T07:09:58;99567.88;;;17.19;44.07
40075;BME280;26529;51.530;11.754;2023-01-30T07:12:24;99575.84;;;17.19;43.81
40075;BME280;26529;51.530;11.754;2023-01-30T07:14:51;99567.03;;;17.19;43.95
40075;BME280;26529;51.530;11.754;2023-01-30T07:17:17;99564.38;;;17.19;43.86
40075;BME280;26529;51.530;11.754;2023-01-30T07:19:43;99568.94;;;17.17;43.92
40075;BME280;26529;51.530;11.754;2023-01-30T07:22:08;99567.03;;;17.19;43.94
40075;BME280;26529;51.530;11.754;2023-01-30T07:24:34;99564.38;;;17.19;43.80
40075;BME280;26529;51.530;11.754;2023-01-30T07:27:00;99573.19;;;17.19;44.00
40075;BME280;26529;51.530;11.754;2023-01-30T07:29:25;99574.97;;;17.19;43.85
40075;BME280;26529;51.530;11.754;2023-01-30T07:31:51;99579.53;;;17.17;44.01
40075;BME280;26529;51.530;11.754;2023-01-30T07:34:16;99576.16;;;17.15;43.92
40075;BME280;26529;51.530;11.754;2023-01-30T07:36:42;99572.53;;;17.16;44.01
40075;BME280;26529;51.530;11.754;2023-01-30T07:39:07;99561.09;;;17.15;43.97
40075;BME280;26529;51.530;11.754;2023-01-30T07:41:36;99558.34;;;17.17;43.77
40075;BME280;26529;51.530;11.754;2023-01-30T07:44:02;99563.63;;;17.17;44.03
40075;BME280;26529;51.530;11.754;2023-01-30T07:46:27;99551.25;;;17.17;43.86
40075;BME280;26529;51.530;11.754;2023-01-30T07:49:03;99547.75;;;17.17;44.06
40075;BME280;26529;51.530;11.754;2023-01-30T07:51:29;99542.44;;;17.17;43.77
40075;BME280;26529;51.530;11.754;2023-01-30T07:53:54;99542.44;;;17.17;44.00
40075;BME280;26529;51.530;11.754;2023-01-30T07:56:20;99543.50;;;17.14;44.04
40075;BME280;26529;51.530;11.754;2023-01-30T07:58:49;99542.66;;;17.14;43.84
40075;BME280;26529;51.530;11.754;2023-01-30T08:01:15;99556.66;;;17.16;44.02
40075;BME280;26529;51.530;11.754;2023-01-30T08:03:42;99538.97;;;17.16;43.80
40075;BME280;26529;51.530;11.754;2023-01-30T08:06:08;99544.34;;;17.15;43.85
40075;BME280;26529;51.530;11.754;2023-01-30T08:08:34;99550.50;;;17.15;44.08
40075;BME280;26529;51.530;11.754;2023-01-30T08:10:59;99560.25;;;17.15;44.09
40075;BME280;26529;51.530;11.754;2023-01-30T08:13:25;99557.69;;;17.13;43.85
40075;BME280;26529;51.530;11.754;2023-01-30T08:15:50;99548.78;;;17.14;44.01
40075;BME280;26529;51.530;11.754;2023-01-30T08:18:16;99550.63;;;17.14;43.96
40075;BME280;26529;51.530;11.754;2023-01-30T08:20:41;99546.28;;;17.13;43.76
40075;BME280;26529;51.530;11.754;2023-01-30T08:23:07;99551.56;;;17.13;44.10
40075;BME280;26529;51.530;11.754;2023-01-30T08:25:33;99546.47;;;17.09;44.03
40075;BME280;26529;51.530;11.754;2023-01-30T08:28:00;99533.94;;;17.12;43.98
40075;BME280;26529;51.530;11.754;2023-01-30T08:30:26;99534.81;;;17.12;43.91
40075;BME280;26529;51.530;11.754;2023-01-30T08:32:51;99532.91;;;17.14;43.89
40075;BME280;26529;51.530;11.754;2023-01-30T08:35:17;99536.41;;;17.15;43.96
40075;BME280;26529;51.530;11.754;2023-01-30T08:37:42;99542.66;;;17.14;43.94
40075;BME280;26529;51.530;11.754;2023-01-30T08:40:09;99537.38;;;17.14;43.95
40075;BME280;26529;51.530;11.754;2023-01-30T08:42:34;99546.28;;;17.13;43.90
40075;BME280;26529;51.530;11.754;2023-01-30T08:45:00;99543.63;;;17.13;44.09
40075;BME280;26529;51.530;11.754;2023-01-30T08:47:25;99539.25;;;17.12;44.02
40075;BME280;26529;51.530;11.754;2023-01-30T08:49:51;99543.72;;;17.11;43.93
40075;BME280;26529;51.530;11.754;2023-01-30T08:52:20;99554.22;;;17.13;43.85
40075;BME280;26529;51.530;11.754;2023-01-30T08:54:45;99568.38;;;17.12;44.12
40075;BME280;26529;51.530;11.754;2023-01-30T08:57:12;99579.75;;;17.14;44.03
40075;BME280;26529;51.530;11.754;2023-01-30T08:59:38;99569.97;;;17.14;44.06
40075;BME280;26529;51.530;11.754;2023-01-30T09:02:04;99590.34;;;17.14;43.96
40075;BME280;26529;51.530;11.754;2023-01-30T09:04:29;99596.59;;;17.13;44.00
40075;BME280;26529;51.530;11.754;2023-01-30T09:06:55;99586.94;;;17.12;44.00
40075;BME280;26529;51.530;11.754;2023-01-30T09:09:20;99568.38;;;17.12;43.96
40075;BME280;26529;51.530;11.754;2023-01-30T09:11:46;99558.75;;;17.11;43.98
40075;BME280;26529;51.530;11.754;2023-01-30T09:14:16;99561.41;;;17.11;43.96
40075;BME280;26529;51.530;11.754;2023-01-30T09:16:48;99551.75;;;17.09;43.92
40075;BME280;26529;51.530;11.754;2023-01-30T09:19:24;99558.75;;;17.11;43.98
40075;BME280;26529;51.530;11.754;2023-01-30T09:21:51;99550.81;;;17.11;44.07
40075;BME280;26529;51.530;11.754;2023-01-30T09:24:16;99557.06;;;17.09;44.04
40075;BME280;26529;51.530;11.754;2023-01-30T09:26:42;99550.88;;;17.09;44.11
40075;BME280;26529;51.530;11.754;2023-01-30T09:29:13;99550.81;;;17.11;43.86
40075;BME280;26529;51.530;11.754;2023-01-30T09:31:39;99548.16;;;17.11;43.85
40075;BME280;26529;51.530;11.754;2023-01-30T09:34:05;99551.75;;;17.09;43.90
40075;BME280;26529;51.530;11.754;2023-01-30T09:36:31;99549.09;;;17.09;43.91
40075;BME280;26529;51.530;11.754;2023-01-30T09:38:56;99539.25;;;17.12;43.92
40075;BME280;26529;51.530;11.754;2023-01-30T09:41:41;99538.41;;;17.11;44.05
40075;BME280;26529;51.530;11.754;2023-01-30T09:47:01;99534.16;;;17.08;43.78
40075;BME280;26529;51.530;11.754;2023-01-30T09:54:57;99545.59;;;17.09;43.92
40075;BME280;26529;51.530;11.754;2023-01-30T09:57:24;99529.81;;;17.07;44.07
40075;BME280;26529;51.530;11.754;2023-01-30T09:59:58;99542.22;;;17.07;43.91
40075;BME280;26529;51.530;11.754;2023-01-30T10:02:38;99542.94;;;17.09;44.13
40075;BME280;26529;51.530;11.754;2023-01-30T10:05:06;99535.88;;;17.09;44.12
40075;BME280;26529;51.530;11.754;2023-01-30T10:10:36;99538.50;;;17.09;43.94
40075;BME280;26529;51.530;11.754;2023-01-30T10:13:21;99528.00;;;17.08;43.88
40075;BME280;26529;51.530;11.754;2023-01-30T10:16:06;99522.84;;;17.06;44.12
40075;BME280;26529;51.530;11.754;2023-01-30T10:26:33;99520.06;;;17.08;43.94
40075;BME280;26529;51.530;11.754;2023-01-30T10:29:09;99512.97;;;17.08;43.96
40075;BME280;26529;51.530;11.754;2023-01-30T10:31:43;99522.72;;;17.08;43.89
40075;BME280;26529;51.530;11.754;2023-01-30T10:34:18;99527.19;;;17.07;43.99
40075;BME280;26529;51.530;11.754;2023-01-30T10:36:53;99537.78;;;17.07;43.86
40075;BME280;26529;51.530;11.754;2023-01-30T10:39:27;99530.56;;;17.09;43.84
40075;BME280;26529;51.530;11.754;2023-01-30T10:42:07;99535.00;;;17.09;43.91
40075;BME280;26529;51.530;11.754;2023-01-30T10:47:33;99536.91;;;17.07;43.81
40075;BME280;26529;51.530;11.754;2023-01-30T10:50:18;99531.63;;;17.07;43.95
40075;BME280;26529;51.530;11.754;2023-01-30T10:55:55;99528.88;;;17.08;44.01
40075;BME280;26529;51.530;11.754;2023-01-30T10:58:40;99536.81;;;17.08;44.14
40075;BME280;26529;51.530;11.754;2023-01-30T11:01:16;99534.16;;;17.08;44.09
40075;BME280;26529;51.530;11.754;2023-01-30T11:03:55;99527.19;;;17.07;43.99
40075;BME280;26529;51.530;11.754;2023-01-30T11:06:25;99521.75;;;17.09;44.01
40075;BME280;26529;51.530;11.754;2023-01-30T11:08:52;99540.19;;;17.11;44.04
40075;BME280;26529;51.530;11.754;2023-01-30T11:14:12;99533.03;;;17.13;43.84
40075;BME280;26529;51.530;11.754;2023-01-30T11:16:52;99528.47;;;17.15;43.75
40075;BME280;26529;51.530;11.754;2023-01-30T11:19:21;99521.47;;;17.27;43.60
40075;BME280;26529;51.530;11.754;2023-01-30T11:21:58;99513.44;;;17.28;43.58
40075;BME280;26529;51.530;11.754;2023-01-30T11:24:29;99517.03;;;17.27;43.50
40075;BME280;26529;51.530;11.754;2023-01-30T11:29:40;99506.63;;;17.24;43.75
40075;BME280;26529;51.530;11.754;2023-01-30T11:32:11;99499.56;;;17.25;43.65
40075;BME280;26529;51.530;11.754;2023-01-30T11:34:41;99500.81;;;17.32;43.57
40075;BME280;26529;51.530;11.754;2023-01-30T11:37:35;99502.84;;;17.41;43.25
40075;BME280;26529;51.530;11.754;2023-01-30T11:40:27;99502.41;;;17.47;43.03
40075;BME280;26529;51.530;11.754;2023-01-30T11:43:01;99494.69;;;17.57;43.13
40075;BME280;26529;51.530;11.754;2023-01-30T11:45:27;99499.16;;;17.57;43.04
40075;BME280;26529;51.530;11.754;2023-01-30T11:48:03;99479.50;;;17.59;43.02
40075;BME280;26529;51.530;11.754;2023-01-30T11:50:41;99482.28;;;17.58;43.09
40075;BME280;26529;51.530;11.754;2023-01-30T11:53:24;99468.28;;;17.56;43.21
40075;BME280;26529;51.530;11.754;2023-01-30T11:55:54;99476.34;;;17.54;43.02
40075;BME280;26529;51.530;11.754;2023-01-30T11:58:22;99480.06;;;17.52;43.16
40075;BME280;26529;51.530;11.754;2023-01-30T12:00:47;99462.56;;;17.49;43.16
40075;BME280;26529;51.530;11.754;2023-01-30T12:03:17;99468.81;;;17.48;43.11
40075;BME280;26529;51.530;11.754;2023-01-30T12:05:45;99455.78;;;17.45;43.39
40075;BME280;26529;51.530;11.754;2023-01-30T12:10:48;99463.84;;;17.43;43.20
40075;BME280;26529;51.530;11.754;2023-01-30T12:13:33;99457.69;;;17.43;43.52
40075;BME280;26529;51.530;11.754;2023-01-30T12:18:45;99451.34;;;17.45;43.28
40075;BME280;26529;51.530;11.754;2023-01-30T12:23:55;99440.41;;;17.50;43.28
40075;BME280;26529;51.530;11.754;2023-01-30T12:26:27;99442.41;;;17.46;43.12
40075;BME280;26529;51.530;11.754;2023-01-30T12:31:35;99433.09;;;17.41;43.43
40075;BME280;26529;51.530;11.754;2023-01-30T12:34:04;99423.78;;;17.48;43.35
40075;BME280;26529;51.530;11.754;2023-01-30T12:39:46;99410.16;;;17.66;42.87
40075;BME280;26529;51.530;11.754;2023-01-30T12:45:27;99403.09;;;17.53;43.36
40075;BME280;26529;51.530;11.754;2023-01-30T12:48:14;99404.16;;;17.51;43.27
40075;BME280;26529;51.530;11.754;2023-01-30T12:51:32;99409.56;;;17.49;43.32
40075;BME280;26529;51.530;11.754;2023-01-30T12:59:05;99419.72;;;17.42;43.75
40075;BME280;26529;51.530;11.754;2023-01-30T13:04:28;99424.41;;;17.39;43.50
40075;BME280;26529;51.530;11.754;2023-01-30T13:07:13;99433.53;;;17.34;43.73
40075;BME280;26529;51.530;11.754;2023-01-30T13:09:50;99422.94;;;17.34;43.65
40075;BME280;26529;51.530;11.754;2023-01-30T13:22:45;99413.81;;;17.26;43.85
40075;BME280;26529;51.530;11.754;2023-01-30T13:25:35;99422.72;;;17.25;43.80
40075;BME280;26529;51.530;11.754;2023-01-30T13:28:09;99436.69;;;17.27;43.89
40075;BME280;26529;51.530;11.754;2023-01-30T13:30:37;99421.03;;;17.24;43.95
40075;BME280;26529;51.530;11.754;2023-01-30T13:33:09;99417.53;;;17.23;43.73
40075;BME280;26529;51.530;11.754;2023-01-30T13:35:44;99415.72;;;17.24;43.98
40075;BME280;26529;51.530;11.754;2023-01-30T13:38:17;99425.47;;;17.23;43.84
40075;BME280;26529;51.530;11.754;2023-01-30T13:40:44;99434.38;;;17.22;43.98
40075;BME280;26529;51.530;11.754;2023-01-30T13:43:19;99435.19;;;17.22;43.93
40075;BME280;26529;51.530;11.754;2023-01-30T13:45:49;99431.31;;;17.28;43.74
40075;BME280;26529;51.530;11.754;2023-01-30T13:57:13;99435.63;;;17.55;43.25
40075;BME280;26529;51.530;11.754;2023-01-30T14:00:46;99414.00;;;17.61;43.00
40075;BME280;26529;51.530;11.754;2023-01-30T14:03:14;99417.19;;;17.67;43.00
40075;BME280;26529;51.530;11.754;2023-01-30T14:08:47;99427.31;;;17.73;42.97
40075;BME280;26529;51.530;11.754;2023-01-30T14:11:35;99428.50;;;17.69;43.11
40075;BME280;26529;51.530;11.754;2023-01-30T14:14:22;99414.19;;;17.58;43.06
40075;BME280;26529;51.530;11.754;2023-01-30T14:16:50;99407.31;;;17.69;42.75
40075;BME280;26529;51.530;11.754;2023-01-30T14:19:35;99423.06;;;17.83;42.60
40075;BME280;26529;51.530;11.754;2023-01-30T14:22:31;99422.84;;;19.43;39.31
40075;BME280;26529;51.530;11.754;2023-01-30T14:32:59;99442.28;;;17.74;42.72
40075;BME280;26529;51.530;11.754;2023-01-30T14:35:27;99417.19;;;17.54;43.09
40075;BME280;26529;51.530;11.754;2023-01-30T14:40:32;99448.25;;;17.39;43.47
40075;BME280;26529;51.530;11.754;2023-01-30T14:48:41;99472.63;;;17.31;43.69
40075;BME280;26529;51.530;11.754;2023-01-30T14:51:15;99469.84;;;17.32;43.83
40075;BME280;26529;51.530;11.754;2023-01-30T14:59:06;99486.94;;;17.28;43.83
40075;BME280;26529;51.530;11.754;2023-01-30T15:01:52;99482.59;;;17.27;43.88
40075;BME280;26529;51.530;11.754;2023-01-30T15:04:18;99502.00;;;17.41;43.46
40075;BME280;26529;51.530;11.754;2023-01-30T15:06:45;99503.06;;;17.51;43.24